sensor_id;sensor_type;location;lat;lon;timestamp;P1;durP1;ratioP1;P2;durP2;ratioP2
30998;SDS011;20549;50.042;8.968;2023-02-10T00:01:30;23.77;;;15.20;;
30998;SDS011;20549;50.042;8.968;2023-02-10T00:03:57;22.63;;;14.80;;
30998;SDS011;20549;50.042;8.968;2023-02-10T00:06:23;18.00;;;13.50;;
30998;SDS011;20549;50.042;8.968;2023-02-10T00:08:50;21.70;;;15.27;;
30998;SDS011;20549;50.042;8.968;2023-02-10T00:11:16;20.57;;;13.77;;
30998;SDS011;20549;50.042;8.968;2023-02-10T00:13:43;20.67;;;13.87;;
30998;SDS011;20549;50.042;8.968;2023-02-10T00:16:11;17.93;;;12.47;;
30998;SDS011;20549;50.042;8.968;2023-02-10T00:18:36;21.77;;;13.93;;
30998;SDS011;20549;50.042;8.968;2023-02-10T00:21:10;19.60;;;13.87;;
30998;SDS011;20549;50.042;8.968;2023-02-10T00:23:35;22.67;;;14.23;;
30998;SDS011;20549;50.042;8.968;2023-02-10T00:26:02;21.57;;;15.13;;
30998;SDS011;20549;50.042;8.968;2023-02-10T00:28:31;21.93;;;14.37;;
30998;SDS011;20549;50.042;8.968;2023-02-10T00:30:57;20.70;;;13.77;;
30998;SDS011;20549;50.042;8.968;2023-02-10T00:33:24;21.03;;;14.67;;
30998;SDS011;20549;50.042;8.968;2023-02-10T00:35:50;20.27;;;14.80;;
30998;SDS011;20549;50.042;8.968;2023-02-10T00:38:17;24.47;;;14.63;;
30998;SDS011;20549;50.042;8.968;2023-02-10T00:40:44;21.90;;;14.23;;
30998;SDS011;20549;50.042;8.968;2023-02-10T00:43:10;23.00;;;14.83;;
30998;SDS011;20549;50.042;8.968;2023-02-10T00:45:37;22.27;;;13.93;;
30998;SDS011;20549;50.042;8.968;2023-02-10T00:48:03;22.27;;;13.70;;
30998;SDS011;20549;50.042;8.968;2023-02-10T00:50:30;22.27;;;14.67;;
30998;SDS011;20549;50.042;8.968;2023-02-10T00:52:57;24.93;;;15.60;;
30998;SDS011;20549;50.042;8.968;2023-02-10T00:55:23;21.60;;;14.80;;
30998;SDS011;20549;50.042;8.968;2023-02-10T00:57:50;23.10;;;14.97;;
30998;SDS011;20549;50.042;8.968;2023-02-10T01:00:16;23.53;;;14.30;;
30998;SDS011;20549;50.042;8.968;2023-02-10T01:02:43;21.77;;;13.33;;
30998;SDS011;20549;50.042;8.968;2023-02-10T01:05:10;21.20;;;15.43;;
30998;SDS011;20549;50.042;8.968;2023-02-10T01:07:36;20.70;;;14.77;;
30998;SDS011;20549;50.042;8.968;2023-02-10T01:10:03;24.87;;;16.23;;
30998;SDS011;20549;50.042;8.968;2023-02-10T01:12:29;18.70;;;14.07;;
30998;SDS011;20549;50.042;8.968;2023-02-10T01:14:56;21.57;;;14.93;;
30998;SDS011;20549;50.042;8.968;2023-02-10T01:17:23;23.53;;;14.83;;
30998;SDS011;20549;50.042;8.968;2023-02-10T01:19:49;26.47;;;15.63;;
30998;SDS011;20549;50.042;8.968;2023-02-10T01:22:16;19.17;;;13.67;;
30998;SDS011;20549;50.042;8.968;2023-02-10T01:24:42;21.77;;;14.00;;
30998;SDS011;20549;50.042;8.968;2023-02-10T01:27:09;19.17;;;13.70;;
30998;SDS011;20549;50.042;8.968;2023-02-10T01:29:35;21.67;;;13.50;;
30998;SDS011;20549;50.042;8.968;2023-02-10T01:32:02;20.37;;;13.70;;
30998;SDS011;20549;50.042;8.968;2023-02-10T01:34:29;22.40;;;13.43;;
30998;SDS011;20549;50.042;8.968;2023-02-10T01:36:55;23.57;;;14.47;;
30998;SDS011;20549;50.042;8.968;2023-02-10T01:39:22;19.80;;;13.57;;
30998;SDS011;20549;50.042;8.968;2023-02-10T01:41:48;23.00;;;13.73;;
30998;SDS011;20549;50.042;8.968;2023-02-10T01:46:45;19.30;;;14.33;;
30998;SDS011;20549;50.042;8.968;2023-02-10T01:49:13;21.20;;;14.30;;
30998;SDS011;20549;50.042;8.968;2023-02-10T01:51:45;22.40;;;14.30;;
30998;SDS011;20549;50.042;8.968;2023-02-10T01:54:14;20.80;;;13.77;;
30998;SDS011;20549;50.042;8.968;2023-02-10T01:56:40;21.00;;;14.47;;
30998;SDS011;20549;50.042;8.968;2023-02-10T01:59:06;21.70;;;14.67;;
30998;SDS011;20549;50.042;8.968;2023-02-10T02:01:33;23.20;;;14.83;;
30998;SDS011;20549;50.042;8.968;2023-02-10T02:04:00;24.60;;;15.23;;
30998;SDS011;20549;50.042;8.968;2023-02-10T02:06:26;21.57;;;15.47;;
30998;SDS011;20549;50.042;8.968;2023-02-10T02:08:53;19.00;;;13.83;;
30998;SDS011;20549;50.042;8.968;2023-02-10T02:19:24;20.87;;;13.90;;
30998;SDS011;20549;50.042;8.968;2023-02-10T02:29:46;21.87;;;14.50;;
30998;SDS011;20549;50.042;8.968;2023-02-10T02:32:21;26.57;;;15.33;;
30998;SDS011;20549;50.042;8.968;2023-02-10T02:37:19;21.30;;;14.40;;
30998;SDS011;20549;50.042;8.968;2023-02-10T02:39:43;22.47;;;14.47;;
30998;SDS011;20549;50.042;8.968;2023-02-10T02:44:39;22.97;;;14.77;;
30998;SDS011;20549;50.042;8.968;2023-02-10T02:55:14;21.47;;;14.10;;
30998;SDS011;20549;50.042;8.968;2023-02-10T02:57:42;23.47;;;14.87;;
30998;SDS011;20549;50.042;8.968;2023-02-10T03:00:19;22.00;;;14.27;;
30998;SDS011;20549;50.042;8.968;2023-02-10T03:02:44;22.30;;;14.17;;
30998;SDS011;20549;50.042;8.968;2023-02-10T03:05:11;17.73;;;13.70;;
30998;SDS011;20549;50.042;8.968;2023-02-10T03:07:37;20.20;;;13.97;;
30998;SDS011;20549;50.042;8.968;2023-02-10T03:10:04;22.40;;;14.37;;
30998;SDS011;20549;50.042;8.968;2023-02-10T03:12:31;18.30;;;12.90;;
30998;SDS011;20549;50.042;8.968;2023-02-10T03:14:57;20.10;;;13.80;;
30998;SDS011;20549;50.042;8.968;2023-02-10T03:17:24;19.50;;;13.87;;
30998;SDS011;20549;50.042;8.968;2023-02-10T03:19:50;22.20;;;14.30;;
30998;SDS011;20549;50.042;8.968;2023-02-10T03:22:17;22.17;;;13.50;;
30998;SDS011;20549;50.042;8.968;2023-02-10T03:24:44;22.73;;;13.70;;
30998;SDS011;20549;50.042;8.968;2023-02-10T03:27:10;20.97;;;13.40;;
30998;SDS011;20549;50.042;8.968;2023-02-10T03:29:37;21.17;;;13.93;;
30998;SDS011;20549;50.042;8.968;2023-02-10T03:32:03;18.47;;;13.33;;
30998;SDS011;20549;50.042;8.968;2023-02-10T03:34:30;23.03;;;14.23;;
30998;SDS011;20549;50.042;8.968;2023-02-10T03:36:56;19.77;;;13.00;;
30998;SDS011;20549;50.042;8.968;2023-02-10T03:39:23;19.73;;;13.60;;
30998;SDS011;20549;50.042;8.968;2023-02-10T03:41:50;20.13;;;12.30;;
30998;SDS011;20549;50.042;8.968;2023-02-10T03:44:16;16.33;;;12.20;;
30998;SDS011;20549;50.042;8.968;2023-02-10T03:46:43;17.60;;;12.77;;
30998;SDS011;20549;50.042;8.968;2023-02-10T03:49:09;21.43;;;13.13;;
30998;SDS011;20549;50.042;8.968;2023-02-10T03:51:36;16.87;;;13.07;;
30998;SDS011;20549;50.042;8.968;2023-02-10T03:54:03;18.83;;;13.10;;
30998;SDS011;20549;50.042;8.968;2023-02-10T03:56:29;19.60;;;13.47;;
30998;SDS011;20549;50.042;8.968;2023-02-10T03:58:56;19.17;;;13.00;;
30998;SDS011;20549;50.042;8.968;2023-02-10T04:01:22;17.90;;;12.97;;
30998;SDS011;20549;50.042;8.968;2023-02-10T04:03:49;21.77;;;13.57;;
30998;SDS011;20549;50.042;8.968;2023-02-10T04:06:16;20.23;;;14.07;;
30998;SDS011;20549;50.042;8.968;2023-02-10T04:08:42;16.40;;;12.33;;
30998;SDS011;20549;50.042;8.968;2023-02-10T04:11:09;20.37;;;14.53;;
30998;SDS011;20549;50.042;8.968;2023-02-10T04:13:36;20.17;;;14.10;;
30998;SDS011;20549;50.042;8.968;2023-02-10T04:16:09;21.90;;;13.83;;
30998;SDS011;20549;50.042;8.968;2023-02-10T04:18:35;17.53;;;12.17;;
30998;SDS011;20549;50.042;8.968;2023-02-10T04:21:02;19.20;;;13.50;;
30998;SDS011;20549;50.042;8.968;2023-02-10T04:23:28;17.77;;;12.77;;
30998;SDS011;20549;50.042;8.968;2023-02-10T04:25:54;17.20;;;12.73;;
30998;SDS011;20549;50.042;8.968;2023-02-10T04:28:21;16.90;;;12.47;;
30998;SDS011;20549;50.042;8.968;2023-02-10T04:30:50;19.40;;;13.97;;
30998;SDS011;20549;50.042;8.968;2023-02-10T04:33:16;19.93;;;13.97;;
30998;SDS011;20549;50.042;8.968;2023-02-10T04:35:43;20.20;;;13.37;;
30998;SDS011;20549;50.042;8.968;2023-02-10T04:38:13;19.20;;;13.97;;
30998;SDS011;20549;50.042;8.968;2023-02-10T04:40:39;20.63;;;12.60;;
30998;SDS011;20549;50.042;8.968;2023-02-10T04:43:06;19.07;;;13.50;;
30998;SDS011;20549;50.042;8.968;2023-02-10T04:45:32;18.23;;;13.47;;
30998;SDS011;20549;50.042;8.968;2023-02-10T04:47:59;18.47;;;13.33;;
30998;SDS011;20549;50.042;8.968;2023-02-10T04:50:26;19.73;;;14.00;;
30998;SDS011;20549;50.042;8.968;2023-02-10T04:52:52;18.00;;;14.23;;
30998;SDS011;20549;50.042;8.968;2023-02-10T04:55:19;17.93;;;13.30;;
30998;SDS011;20549;50.042;8.968;2023-02-10T04:57:45;16.50;;;13.07;;
30998;SDS011;20549;50.042;8.968;2023-02-10T05:00:12;18.37;;;12.83;;
30998;SDS011;20549;50.042;8.968;2023-02-10T05:02:39;19.87;;;13.63;;
30998;SDS011;20549;50.042;8.968;2023-02-10T05:05:06;20.13;;;13.73;;
30998;SDS011;20549;50.042;8.968;2023-02-10T05:07:32;15.10;;;12.57;;
30998;SDS011;20549;50.042;8.968;2023-02-10T05:09:58;16.77;;;12.97;;
30998;SDS011;20549;50.042;8.968;2023-02-10T05:12:25;16.27;;;12.83;;
30998;SDS011;20549;50.042;8.968;2023-02-10T05:14:51;19.30;;;14.77;;
30998;SDS011;20549;50.042;8.968;2023-02-10T05:17:18;21.20;;;13.83;;
30998;SDS011;20549;50.042;8.968;2023-02-10T05:19:45;18.67;;;14.03;;
30998;SDS011;20549;50.042;8.968;2023-02-10T05:22:11;18.13;;;12.80;;
30998;SDS011;20549;50.042;8.968;2023-02-10T05:24:38;17.10;;;13.60;;
30998;SDS011;20549;50.042;8.968;2023-02-10T05:27:04;17.87;;;13.20;;
30998;SDS011;20549;50.042;8.968;2023-02-10T05:29:31;19.37;;;13.50;;
30998;SDS011;20549;50.042;8.968;2023-02-10T05:31:58;18.20;;;12.93;;
30998;SDS011;20549;50.042;8.968;2023-02-10T05:34:24;21.00;;;13.67;;
30998;SDS011;20549;50.042;8.968;2023-02-10T05:36:51;16.90;;;12.93;;
30998;SDS011;20549;50.042;8.968;2023-02-10T05:39:17;18.57;;;12.87;;
30998;SDS011;20549;50.042;8.968;2023-02-10T05:41:57;16.67;;;13.00;;
30998;SDS011;20549;50.042;8.968;2023-02-10T05:44:19;17.33;;;13.23;;
30998;SDS011;20549;50.042;8.968;2023-02-10T05:46:45;19.20;;;13.27;;
30998;SDS011;20549;50.042;8.968;2023-02-10T05:49:12;15.47;;;11.77;;
30998;SDS011;20549;50.042;8.968;2023-02-10T05:51:39;20.87;;;13.33;;
30998;SDS011;20549;50.042;8.968;2023-02-10T05:54:05;18.07;;;13.57;;
30998;SDS011;20549;50.042;8.968;2023-02-10T05:56:32;16.50;;;13.37;;
30998;SDS011;20549;50.042;8.968;2023-02-10T05:58:58;16.83;;;12.30;;
30998;SDS011;20549;50.042;8.968;2023-02-10T06:01:25;18.57;;;13.53;;
30998;SDS011;20549;50.042;8.968;2023-02-10T06:03:52;15.90;;;12.67;;
30998;SDS011;20549;50.042;8.968;2023-02-10T06:06:18;17.70;;;14.07;;
30998;SDS011;20549;50.042;8.968;2023-02-10T06:08:45;16.27;;;12.43;;
30998;SDS011;20549;50.042;8.968;2023-02-10T06:11:11;16.67;;;13.27;;
30998;SDS011;20549;50.042;8.968;2023-02-10T06:13:38;19.40;;;14.20;;
30998;SDS011;20549;50.042;8.968;2023-02-10T06:16:05;18.70;;;13.87;;
30998;SDS011;20549;50.042;8.968;2023-02-10T06:18:31;19.20;;;14.40;;
30998;SDS011;20549;50.042;8.968;2023-02-10T06:20:58;16.47;;;13.33;;
30998;SDS011;20549;50.042;8.968;2023-02-10T06:23:24;19.97;;;12.87;;
30998;SDS011;20549;50.042;8.968;2023-02-10T06:28:31;19.67;;;14.13;;
30998;SDS011;20549;50.042;8.968;2023-02-10T06:30:57;16.33;;;12.53;;
30998;SDS011;20549;50.042;8.968;2023-02-10T06:33:24;21.80;;;14.60;;
30998;SDS011;20549;50.042;8.968;2023-02-10T06:35:51;20.30;;;13.93;;
30998;SDS011;20549;50.042;8.968;2023-02-10T06:38:17;18.83;;;13.70;;
30998;SDS011;20549;50.042;8.968;2023-02-10T06:40:44;17.70;;;13.00;;
30998;SDS011;20549;50.042;8.968;2023-02-10T06:43:10;18.30;;;13.37;;
30998;SDS011;20549;50.042;8.968;2023-02-10T06:45:37;18.07;;;13.63;;
30998;SDS011;20549;50.042;8.968;2023-02-10T06:48:03;19.57;;;13.23;;
30998;SDS011;20549;50.042;8.968;2023-02-10T06:50:30;20.30;;;13.77;;
30998;SDS011;20549;50.042;8.968;2023-02-10T06:52:57;18.37;;;13.60;;
30998;SDS011;20549;50.042;8.968;2023-02-10T06:55:23;17.90;;;14.07;;
30998;SDS011;20549;50.042;8.968;2023-02-10T06:57:50;18.93;;;13.07;;
30998;SDS011;20549;50.042;8.968;2023-02-10T07:00:16;18.43;;;13.97;;
30998;SDS011;20549;50.042;8.968;2023-02-10T07:02:43;17.80;;;13.90;;
30998;SDS011;20549;50.042;8.968;2023-02-10T07:05:10;16.80;;;13.47;;
30998;SDS011;20549;50.042;8.968;2023-02-10T07:07:36;17.13;;;13.07;;
30998;SDS011;20549;50.042;8.968;2023-02-10T07:10:03;18.20;;;13.37;;
30998;SDS011;20549;50.042;8.968;2023-02-10T07:12:29;18.50;;;14.33;;
30998;SDS011;20549;50.042;8.968;2023-02-10T07:14:56;17.87;;;14.00;;
30998;SDS011;20549;50.042;8.968;2023-02-10T07:17:23;19.67;;;14.33;;
30998;SDS011;20549;50.042;8.968;2023-02-10T07:19:49;18.70;;;13.50;;
30998;SDS011;20549;50.042;8.968;2023-02-10T07:22:16;19.30;;;14.13;;
30998;SDS011;20549;50.042;8.968;2023-02-10T07:24:42;18.53;;;13.93;;
30998;SDS011;20549;50.042;8.968;2023-02-10T07:27:09;16.40;;;12.63;;
30998;SDS011;20549;50.042;8.968;2023-02-10T07:29:35;19.37;;;13.93;;
30998;SDS011;20549;50.042;8.968;2023-02-10T07:32:02;18.00;;;13.53;;
30998;SDS011;20549;50.042;8.968;2023-02-10T07:34:29;18.30;;;13.17;;
30998;SDS011;20549;50.042;8.968;2023-02-10T07:36:56;17.30;;;13.03;;
30998;SDS011;20549;50.042;8.968;2023-02-10T07:39:22;18.40;;;13.97;;
30998;SDS011;20549;50.042;8.968;2023-02-10T07:41:49;17.33;;;14.17;;
30998;SDS011;20549;50.042;8.968;2023-02-10T07:44:15;19.93;;;13.67;;
30998;SDS011;20549;50.042;8.968;2023-02-10T07:46:42;17.10;;;13.20;;
30998;SDS011;20549;50.042;8.968;2023-02-10T07:49:08;19.93;;;14.53;;
30998;SDS011;20549;50.042;8.968;2023-02-10T07:51:35;21.37;;;15.30;;
30998;SDS011;20549;50.042;8.968;2023-02-10T07:54:01;18.37;;;13.60;;
30998;SDS011;20549;50.042;8.968;2023-02-10T07:56:28;20.27;;;13.67;;
30998;SDS011;20549;50.042;8.968;2023-02-10T07:58:55;17.00;;;13.43;;
30998;SDS011;20549;50.042;8.968;2023-02-10T08:01:21;15.90;;;13.60;;
30998;SDS011;20549;50.042;8.968;2023-02-10T08:03:48;19.90;;;13.13;;
30998;SDS011;20549;50.042;8.968;2023-02-10T08:06:18;18.43;;;14.60;;
30998;SDS011;20549;50.042;8.968;2023-02-10T08:08:41;15.97;;;13.13;;
30998;SDS011;20549;50.042;8.968;2023-02-10T08:11:07;20.47;;;14.03;;
30998;SDS011;20549;50.042;8.968;2023-02-10T08:13:34;17.40;;;14.10;;
30998;SDS011;20549;50.042;8.968;2023-02-10T08:16:03;18.37;;;13.83;;
30998;SDS011;20549;50.042;8.968;2023-02-10T08:18:30;17.43;;;13.17;;
30998;SDS011;20549;50.042;8.968;2023-02-10T08:20:58;17.27;;;13.70;;
30998;SDS011;20549;50.042;8.968;2023-02-10T08:23:26;19.10;;;15.03;;
30998;SDS011;20549;50.042;8.968;2023-02-10T08:25:52;20.33;;;15.30;;
30998;SDS011;20549;50.042;8.968;2023-02-10T08:28:19;18.43;;;13.97;;
30998;SDS011;20549;50.042;8.968;2023-02-10T08:30:46;17.70;;;14.10;;
30998;SDS011;20549;50.042;8.968;2023-02-10T08:33:12;18.97;;;14.10;;
30998;SDS011;20549;50.042;8.968;2023-02-10T08:35:39;18.93;;;14.70;;
30998;SDS011;20549;50.042;8.968;2023-02-10T08:38:06;20.67;;;14.63;;
30998;SDS011;20549;50.042;8.968;2023-02-10T08:40:32;19.53;;;13.67;;
30998;SDS011;20549;50.042;8.968;2023-02-10T08:42:58;20.83;;;15.00;;
30998;SDS011;20549;50.042;8.968;2023-02-10T08:45:25;20.60;;;15.47;;
30998;SDS011;20549;50.042;8.968;2023-02-10T08:47:52;22.27;;;16.63;;
30998;SDS011;20549;50.042;8.968;2023-02-10T08:50:19;20.83;;;16.27;;
30998;SDS011;20549;50.042;8.968;2023-02-10T08:52:46;21.43;;;15.23;;
30998;SDS011;20549;50.042;8.968;2023-02-10T08:55:12;17.30;;;14.03;;
30998;SDS011;20549;50.042;8.968;2023-02-10T08:57:39;20.57;;;14.80;;
30998;SDS011;20549;50.042;8.968;2023-02-10T09:00:06;19.47;;;15.43;;
30998;SDS011;20549;50.042;8.968;2023-02-10T09:02:32;19.67;;;15.10;;
30998;SDS011;20549;50.042;8.968;2023-02-10T09:04:59;22.23;;;14.47;;
30998;SDS011;20549;50.042;8.968;2023-02-10T09:07:25;20.80;;;15.30;;
30998;SDS011;20549;50.042;8.968;2023-02-10T09:09:52;19.30;;;15.37;;
30998;SDS011;20549;50.042;8.968;2023-02-10T09:12:19;18.97;;;14.23;;
30998;SDS011;20549;50.042;8.968;2023-02-10T09:14:45;21.43;;;14.37;;
30998;SDS011;20549;50.042;8.968;2023-02-10T09:17:13;21.60;;;15.33;;
30998;SDS011;20549;50.042;8.968;2023-02-10T09:19:38;21.70;;;15.07;;
30998;SDS011;20549;50.042;8.968;2023-02-10T09:22:05;20.70;;;15.17;;
30998;SDS011;20549;50.042;8.968;2023-02-10T09:24:32;18.90;;;14.87;;
30998;SDS011;20549;50.042;8.968;2023-02-10T09:26:58;18.90;;;14.50;;
30998;SDS011;20549;50.042;8.968;2023-02-10T09:29:25;21.27;;;16.07;;
30998;SDS011;20549;50.042;8.968;2023-02-10T09:31:51;18.90;;;15.03;;
30998;SDS011;20549;50.042;8.968;2023-02-10T09:34:18;18.23;;;15.10;;
30998;SDS011;20549;50.042;8.968;2023-02-10T09:36:44;22.33;;;15.73;;
30998;SDS011;20549;50.042;8.968;2023-02-10T09:39:11;17.93;;;15.57;;
30998;SDS011;20549;50.042;8.968;2023-02-10T09:46:51;20.50;;;15.67;;
30998;SDS011;20549;50.042;8.968;2023-02-10T09:49:41;19.30;;;15.47;;
30998;SDS011;20549;50.042;8.968;2023-02-10T09:52:15;20.17;;;15.40;;
30998;SDS011;20549;50.042;8.968;2023-02-10T09:54:44;21.23;;;15.67;;
30998;SDS011;20549;50.042;8.968;2023-02-10T09:57:21;19.47;;;15.67;;
30998;SDS011;20549;50.042;8.968;2023-02-10T09:59:47;20.27;;;15.33;;
30998;SDS011;20549;50.042;8.968;2023-02-10T10:02:18;22.30;;;15.77;;
30998;SDS011;20549;50.042;8.968;2023-02-10T10:04:43;20.33;;;15.97;;
30998;SDS011;20549;50.042;8.968;2023-02-10T10:07:13;22.20;;;15.80;;
30998;SDS011;20549;50.042;8.968;2023-02-10T10:09:56;19.83;;;15.13;;
30998;SDS011;20549;50.042;8.968;2023-02-10T10:12:18;21.23;;;16.13;;
30998;SDS011;20549;50.042;8.968;2023-02-10T10:14:44;20.93;;;16.43;;
30998;SDS011;20549;50.042;8.968;2023-02-10T10:22:49;21.60;;;15.87;;
30998;SDS011;20549;50.042;8.968;2023-02-10T10:30:46;19.60;;;16.13;;
30998;SDS011;20549;50.042;8.968;2023-02-10T10:33:59;19.57;;;15.80;;
30998;SDS011;20549;50.042;8.968;2023-02-10T10:35:50;19.77;;;15.77;;
30998;SDS011;20549;50.042;8.968;2023-02-10T10:38:21;22.20;;;17.30;;
30998;SDS011;20549;50.042;8.968;2023-02-10T10:40:53;19.77;;;15.67;;
30998;SDS011;20549;50.042;8.968;2023-02-10T10:43:23;21.40;;;16.87;;
30998;SDS011;20549;50.042;8.968;2023-02-10T10:45:49;20.80;;;17.20;;
30998;SDS011;20549;50.042;8.968;2023-02-10T10:48:18;19.87;;;16.17;;
30998;SDS011;20549;50.042;8.968;2023-02-10T10:50:44;19.87;;;16.27;;
30998;SDS011;20549;50.042;8.968;2023-02-10T10:53:14;20.00;;;16.87;;
30998;SDS011;20549;50.042;8.968;2023-02-10T10:55:40;18.90;;;15.93;;
30998;SDS011;20549;50.042;8.968;2023-02-10T10:58:10;21.43;;;16.30;;
30998;SDS011;20549;50.042;8.968;2023-02-10T11:00:52;21.80;;;16.97;;
30998;SDS011;20549;50.042;8.968;2023-02-10T11:03:17;20.63;;;17.07;;
30998;SDS011;20549;50.042;8.968;2023-02-10T11:05:44;20.57;;;17.23;;
30998;SDS011;20549;50.042;8.968;2023-02-10T11:08:21;21.83;;;17.03;;
30998;SDS011;20549;50.042;8.968;2023-02-10T11:13:19;20.93;;;15.87;;
30998;SDS011;20549;50.042;8.968;2023-02-10T11:15:45;19.67;;;16.47;;
30998;SDS011;20549;50.042;8.968;2023-02-10T11:18:21;21.07;;;16.80;;
30998;SDS011;20549;50.042;8.968;2023-02-10T11:23:19;21.43;;;16.93;;
30998;SDS011;20549;50.042;8.968;2023-02-10T11:25:54;19.67;;;16.63;;
30998;SDS011;20549;50.042;8.968;2023-02-10T11:28:17;22.17;;;16.67;;
30998;SDS011;20549;50.042;8.968;2023-02-10T11:30:42;20.83;;;16.67;;
30998;SDS011;20549;50.042;8.968;2023-02-10T11:33:21;22.53;;;17.03;;
30998;SDS011;20549;50.042;8.968;2023-02-10T11:35:48;23.40;;;17.60;;
30998;SDS011;20549;50.042;8.968;2023-02-10T11:38:17;21.03;;;17.50;;
30998;SDS011;20549;50.042;8.968;2023-02-10T11:40:52;18.87;;;16.40;;
30998;SDS011;20549;50.042;8.968;2023-02-10T11:43:18;19.50;;;15.97;;
30998;SDS011;20549;50.042;8.968;2023-02-10T11:45:54;24.40;;;16.33;;
30998;SDS011;20549;50.042;8.968;2023-02-10T11:48:21;20.50;;;16.43;;
30998;SDS011;20549;50.042;8.968;2023-02-10T11:50:47;23.67;;;16.90;;
30998;SDS011;20549;50.042;8.968;2023-02-10T11:53:21;19.97;;;17.67;;
30998;SDS011;20549;50.042;8.968;2023-02-10T11:55:59;20.73;;;16.50;;
30998;SDS011;20549;50.042;8.968;2023-02-10T12:04:21;19.70;;;15.80;;
30998;SDS011;20549;50.042;8.968;2023-02-10T12:07:01;22.07;;;16.60;;
30998;SDS011;20549;50.042;8.968;2023-02-10T12:09:27;21.90;;;17.07;;
30998;SDS011;20549;50.042;8.968;2023-02-10T12:15:04;22.73;;;17.13;;
30998;SDS011;20549;50.042;8.968;2023-02-10T12:20:16;20.97;;;16.80;;
30998;SDS011;20549;50.042;8.968;2023-02-10T12:28:17;20.07;;;17.80;;
30998;SDS011;20549;50.042;8.968;2023-02-10T12:30:55;20.60;;;16.47;;
30998;SDS011;20549;50.042;8.968;2023-02-10T12:33:26;22.43;;;17.60;;
30998;SDS011;20549;50.042;8.968;2023-02-10T12:36:12;23.37;;;17.57;;
30998;SDS011;20549;50.042;8.968;2023-02-10T12:38:50;22.20;;;16.43;;
30998;SDS011;20549;50.042;8.968;2023-02-10T12:47:14;24.00;;;16.97;;
30998;SDS011;20549;50.042;8.968;2023-02-10T12:52:55;19.70;;;16.20;;
30998;SDS011;20549;50.042;8.968;2023-02-10T12:58:31;19.07;;;16.10;;
30998;SDS011;20549;50.042;8.968;2023-02-10T13:01:00;19.57;;;16.00;;
30998;SDS011;20549;50.042;8.968;2023-02-10T13:03:32;21.50;;;17.07;;
30998;SDS011;20549;50.042;8.968;2023-02-10T13:06:50;19.17;;;15.87;;
30998;SDS011;20549;50.042;8.968;2023-02-10T13:08:48;20.60;;;15.80;;
30998;SDS011;20549;50.042;8.968;2023-02-10T13:11:17;19.67;;;16.10;;
30998;SDS011;20549;50.042;8.968;2023-02-10T13:13:41;19.87;;;15.87;;
30998;SDS011;20549;50.042;8.968;2023-02-10T13:16:08;20.43;;;16.73;;
30998;SDS011;20549;50.042;8.968;2023-02-10T13:21:14;20.87;;;15.83;;
30998;SDS011;20549;50.042;8.968;2023-02-10T13:26:23;20.80;;;17.20;;
30998;SDS011;20549;50.042;8.968;2023-02-10T13:29:08;22.30;;;16.13;;
30998;SDS011;20549;50.042;8.968;2023-02-10T13:31:46;22.27;;;16.03;;
30998;SDS011;20549;50.042;8.968;2023-02-10T13:34:19;20.37;;;16.63;;
30998;SDS011;20549;50.042;8.968;2023-02-10T13:36:51;21.70;;;16.90;;
30998;SDS011;20549;50.042;8.968;2023-02-10T13:39:16;19.03;;;15.90;;
30998;SDS011;20549;50.042;8.968;2023-02-10T13:41:43;21.87;;;16.67;;
30998;SDS011;20549;50.042;8.968;2023-02-10T13:44:16;21.90;;;16.13;;
30998;SDS011;20549;50.042;8.968;2023-02-10T13:46:40;20.77;;;16.87;;
30998;SDS011;20549;50.042;8.968;2023-02-10T13:49:11;20.63;;;16.13;;
30998;SDS011;20549;50.042;8.968;2023-02-10T13:51:36;20.80;;;16.80;;
30998;SDS011;20549;50.042;8.968;2023-02-10T13:54:00;22.67;;;17.00;;
30998;SDS011;20549;50.042;8.968;2023-02-10T13:56:29;19.97;;;16.93;;
30998;SDS011;20549;50.042;8.968;2023-02-10T13:59:00;20.60;;;16.20;;
30998;SDS011;20549;50.042;8.968;2023-02-10T14:01:30;21.67;;;16.57;;
30998;SDS011;20549;50.042;8.968;2023-02-10T14:03:55;23.57;;;16.60;;
30998;SDS011;20549;50.042;8.968;2023-02-10T14:06:32;20.67;;;16.20;;
30998;SDS011;20549;50.042;8.968;2023-02-10T14:09:02;23.07;;;17.20;;
30998;SDS011;20549;50.042;8.968;2023-02-10T14:11:29;22.23;;;16.67;;
30998;SDS011;20549;50.042;8.968;2023-02-10T14:13:58;21.33;;;16.17;;
30998;SDS011;20549;50.042;8.968;2023-02-10T14:19:00;21.73;;;15.40;;
30998;SDS011;20549;50.042;8.968;2023-02-10T14:21:25;20.17;;;16.60;;
30998;SDS011;20549;50.042;8.968;2023-02-10T14:23:53;25.30;;;16.23;;
30998;SDS011;20549;50.042;8.968;2023-02-10T14:26:22;18.70;;;15.17;;
30998;SDS011;20549;50.042;8.968;2023-02-10T14:28:48;17.20;;;15.03;;
30998;SDS011;20549;50.042;8.968;2023-02-10T14:31:17;21.53;;;15.10;;
30998;SDS011;20549;50.042;8.968;2023-02-10T14:33:51;20.53;;;14.83;;
30998;SDS011;20549;50.042;8.968;2023-02-10T14:36:19;20.27;;;15.67;;
30998;SDS011;20549;50.042;8.968;2023-02-10T14:38:43;19.27;;;15.30;;
30998;SDS011;20549;50.042;8.968;2023-02-10T14:41:09;19.00;;;15.53;;
30998;SDS011;20549;50.042;8.968;2023-02-10T14:43:35;23.63;;;15.97;;
30998;SDS011;20549;50.042;8.968;2023-02-10T14:46:02;21.30;;;16.57;;
30998;SDS011;20549;50.042;8.968;2023-02-10T14:48:29;20.97;;;14.77;;
30998;SDS011;20549;50.042;8.968;2023-02-10T14:50:56;20.40;;;16.43;;
30998;SDS011;20549;50.042;8.968;2023-02-10T14:53:22;23.83;;;17.40;;
30998;SDS011;20549;50.042;8.968;2023-02-10T14:55:52;18.17;;;14.70;;
30998;SDS011;20549;50.042;8.968;2023-02-10T14:58:16;19.77;;;15.57;;
30998;SDS011;20549;50.042;8.968;2023-02-10T15:00:42;20.53;;;16.43;;
30998;SDS011;20549;50.042;8.968;2023-02-10T15:03:09;21.37;;;17.03;;
30998;SDS011;20549;50.042;8.968;2023-02-10T15:05:38;22.67;;;15.77;;
30998;SDS011;20549;50.042;8.968;2023-02-10T15:08:06;26.27;;;16.83;;
30998;SDS011;20549;50.042;8.968;2023-02-10T15:10:40;24.97;;;16.70;;
30998;SDS011;20549;50.042;8.968;2023-02-10T15:13:07;22.20;;;16.40;;
30998;SDS011;20549;50.042;8.968;2023-02-10T15:15:37;21.40;;;16.13;;
30998;SDS011;20549;50.042;8.968;2023-02-10T15:18:15;20.40;;;15.70;;
30998;SDS011;20549;50.042;8.968;2023-02-10T15:20:49;30.63;;;16.57;;
30998;SDS011;20549;50.042;8.968;2023-02-10T15:23:12;20.80;;;16.07;;
30998;SDS011;20549;50.042;8.968;2023-02-10T15:25:37;20.43;;;16.23;;
30998;SDS011;20549;50.042;8.968;2023-02-10T15:36:44;20.47;;;15.50;;
30998;SDS011;20549;50.042;8.968;2023-02-10T15:38:41;23.47;;;16.70;;
30998;SDS011;20549;50.042;8.968;2023-02-10T15:41:14;19.83;;;15.33;;
30998;SDS011;20549;50.042;8.968;2023-02-10T15:43:33;21.00;;;16.03;;
30998;SDS011;20549;50.042;8.968;2023-02-10T15:46:06;21.40;;;16.10;;
30998;SDS011;20549;50.042;8.968;2023-02-10T15:48:32;19.90;;;15.90;;
30998;SDS011;20549;50.042;8.968;2023-02-10T15:50:59;22.33;;;16.90;;
30998;SDS011;20549;50.042;8.968;2023-02-10T15:53:25;20.60;;;15.93;;
30998;SDS011;20549;50.042;8.968;2023-02-10T15:55:52;23.57;;;17.77;;
30998;SDS011;20549;50.042;8.968;2023-02-10T15:58:18;21.23;;;17.10;;
30998;SDS011;20549;50.042;8.968;2023-02-10T16:00:45;22.97;;;18.00;;
30998;SDS011;20549;50.042;8.968;2023-02-10T16:03:12;20.87;;;16.40;;
30998;SDS011;20549;50.042;8.968;2023-02-10T16:05:38;20.57;;;16.30;;